sensor_id;sensor_type;location;lat;lon;timestamp;pressure;altitude;pressure_sealevel;temperature;humidity
61408;BME280;47274;43.054;25.146;2024-03-08T00:01:04;95613.38;;;1.55;100.00
61408;BME280;47274;43.054;25.146;2024-03-08T00:03:36;95596.53;;;1.39;100.00
61408;BME280;47274;43.054;25.146;2024-03-08T00:06:02;95589.59;;;1.43;100.00
61408;BME280;47274;43.054;25.146;2024-03-08T00:08:30;95581.81;;;1.46;100.00
61408;BME280;47274;43.054;25.146;2024-03-08T00:11:24;95652.69;;;1.89;100.00
61408;BME280;47274;43.054;25.146;2024-03-08T00:13:53;95617.06;;;1.63;100.00
61408;BME280;47274;43.054;25.146;2024-03-08T00:16:34;95582.63;;;1.47;100.00
61408;BME280;47274;43.054;25.146;2024-03-08T00:19:04;95613.00;;;1.61;100.00
61408;BME280;47274;43.054;25.146;2024-03-08T00:21:37;95539.00;;;1.14;100.00
61408;BME280;47274;43.054;25.146;2024-03-08T00:24:03;95541.25;;;1.05;100.00
61408;BME280;47274;43.054;25.146;2024-03-08T00:26:38;95592.13;;;1.43;100.00
61408;BME280;47274;43.054;25.146;2024-03-08T00:29:04;95658.44;;;1.77;100.00
61408;BME280;47274;43.054;25.146;2024-03-08T00:31:30;95573.94;;;1.22;100.00
61408;BME280;47274;43.054;25.146;2024-03-08T00:33:58;95547.69;;;1.10;100.00
61408;BME280;47274;43.054;25.146;2024-03-08T00:36:28;95582.81;;;1.29;100.00
61408;BME280;47274;43.054;25.146;2024-03-08T00:38:55;95543.69;;;1.06;100.00
61408;BME280;47274;43.054;25.146;2024-03-08T00:41:28;95656.28;;;1.71;100.00
61408;BME280;47274;43.054;25.146;2024-03-08T00:43:57;95596.66;;;1.52;100.00
61408;BME280;47274;43.054;25.146;2024-03-08T00:46:23;95602.78;;;1.62;100.00
61408;BME280;47274;43.054;25.146;2024-03-08T00:49:09;95590.31;;;1.45;100.00
61408;BME280;47274;43.054;25.146;2024-03-08T00:51:35;95598.81;;;1.44;100.00
61408;BME280;47274;43.054;25.146;2024-03-08T00:54:01;95620.03;;;1.56;100.00
61408;BME280;47274;43.054;25.146;2024-03-08T00:56:27;95620.16;;;1.69;100.00
61408;BME280;47274;43.054;25.146;2024-03-08T00:58:53;95597.09;;;1.59;100.00
61408;BME280;47274;43.054;25.146;2024-03-08T01:01:31;95582.91;;;1.56;100.00
61408;BME280;47274;43.054;25.146;2024-03-08T01:04:00;95600.91;;;1.66;100.00
61408;BME280;47274;43.054;25.146;2024-03-08T01:06:25;95620.16;;;1.69;100.00
61408;BME280;47274;43.054;25.146;2024-03-08T01:08:52;95524.94;;;1.10;100.00
61408;BME280;47274;43.054;25.146;2024-03-08T01:11:24;95577.50;;;1.48;100.00
61408;BME280;47274;43.054;25.146;2024-03-08T01:13:50;95530.28;;;1.20;100.00
61408;BME280;47274;43.054;25.146;2024-03-08T01:16:22;95529.25;;;1.23;100.00
61408;BME280;47274;43.054;25.146;2024-03-08T01:18:48;95591.06;;;1.61;100.00
61408;BME280;47274;43.054;25.146;2024-03-08T01:21:21;95571.00;;;1.44;100.00
61408;BME280;47274;43.054;25.146;2024-03-08T01:23:51;95576.06;;;1.44;100.00
61408;BME280;47274;43.054;25.146;2024-03-08T01:26:16;95627.00;;;1.66;100.00
61408;BME280;47274;43.054;25.146;2024-03-08T01:28:42;95592.16;;;1.57;100.00
61408;BME280;47274;43.054;25.146;2024-03-08T01:31:17;95612.72;;;1.65;100.00
61408;BME280;47274;43.054;25.146;2024-03-08T01:36:40;95545.31;;;1.07;100.00
61408;BME280;47274;43.054;25.146;2024-03-08T01:39:14;95524.00;;;0.97;100.00
61408;BME280;47274;43.054;25.146;2024-03-08T01:41:46;95585.25;;;1.31;100.00
61408;BME280;47274;43.054;25.146;2024-03-08T01:44:17;95579.56;;;1.27;100.00
61408;BME280;47274;43.054;25.146;2024-03-08T01:46:53;95546.22;;;1.06;100.00
61408;BME280;47274;43.054;25.146;2024-03-08T01:49:51;95562.97;;;1.23;100.00
61408;BME280;47274;43.054;25.146;2024-03-08T01:52:18;95543.13;;;1.01;100.00
61408;BME280;47274;43.054;25.146;2024-03-08T01:55:02;95549.47;;;1.08;100.00
61408;BME280;47274;43.054;25.146;2024-03-08T01:58:09;95559.50;;;1.24;100.00
61408;BME280;47274;43.054;25.146;2024-03-08T02:00:36;95608.59;;;1.64;100.00
61408;BME280;47274;43.054;25.146;2024-03-08T02:03:10;95537.47;;;1.12;100.00
61408;BME280;47274;43.054;25.146;2024-03-08T02:05:38;95654.84;;;1.81;100.00
61408;BME280;47274;43.054;25.146;2024-03-08T02:08:12;95637.75;;;1.70;100.00
61408;BME280;47274;43.054;25.146;2024-03-08T02:10:46;95625.22;;;1.69;100.00
61408;BME280;47274;43.054;25.146;2024-03-08T02:13:20;95562.97;;;1.37;100.00
61408;BME280;47274;43.054;25.146;2024-03-08T02:15:58;95623.59;;;1.82;100.00
61408;BME280;47274;43.054;25.146;2024-03-08T02:18:36;95616.69;;;1.84;100.00
61408;BME280;47274;43.054;25.146;2024-03-08T02:21:10;95649.88;;;2.08;100.00
61408;BME280;47274;43.054;25.146;2024-03-08T02:23:36;95603.88;;;1.58;100.00
61408;BME280;47274;43.054;25.146;2024-03-08T02:26:14;95645.53;;;1.96;100.00
61408;BME280;47274;43.054;25.146;2024-03-08T02:28:49;95571.53;;;1.49;100.00
61408;BME280;47274;43.054;25.146;2024-03-08T02:31:18;95582.03;;;1.57;100.00
61408;BME280;47274;43.054;25.146;2024-03-08T02:33:44;95607.84;;;1.77;100.00
61408;BME280;47274;43.054;25.146;2024-03-08T02:36:12;95624.47;;;1.81;100.00
61408;BME280;47274;43.054;25.146;2024-03-08T02:38:41;95563.13;;;1.34;100.00
61408;BME280;47274;43.054;25.146;2024-03-08T02:41:13;95586.00;;;1.47;100.00
61408;BME280;47274;43.054;25.146;2024-03-08T02:43:39;95653.22;;;1.94;100.00
61408;BME280;47274;43.054;25.146;2024-03-08T02:46:05;95573.06;;;1.52;100.00
61408;BME280;47274;43.054;25.146;2024-03-08T02:48:31;95621.06;;;1.82;100.00
61408;BME280;47274;43.054;25.146;2024-03-08T02:50:56;95577.41;;;1.50;100.00
61408;BME280;47274;43.054;25.146;2024-03-08T02:53:22;95597.56;;;1.51;100.00
61408;BME280;47274;43.054;25.146;2024-03-08T02:55:52;95576.78;;;1.46;100.00
61408;BME280;47274;43.054;25.146;2024-03-08T02:58:18;95584.34;;;1.60;100.00
61408;BME280;47274;43.054;25.146;2024-03-08T03:00:44;95660.91;;;2.07;100.00
61408;BME280;47274;43.054;25.146;2024-03-08T03:03:10;95587.09;;;1.72;100.00
61408;BME280;47274;43.054;25.146;2024-03-08T03:05:42;95586.19;;;1.73;100.00
61408;BME280;47274;43.054;25.146;2024-03-08T03:08:12;95656.00;;;2.18;100.00
61408;BME280;47274;43.054;25.146;2024-03-08T03:10:41;95608.03;;;1.88;100.00
61408;BME280;47274;43.054;25.146;2024-03-08T03:13:07;95590.06;;;1.78;100.00
61408;BME280;47274;43.054;25.146;2024-03-08T03:15:34;95608.84;;;1.88;100.00
61408;BME280;47274;43.054;25.146;2024-03-08T03:18:03;95638.00;;;2.08;100.00
61408;BME280;47274;43.054;25.146;2024-03-08T03:20:29;95645.72;;;2.07;100.00
61408;BME280;47274;43.054;25.146;2024-03-08T03:23:11;95541.63;;;1.56;100.00
61408;BME280;47274;43.054;25.146;2024-03-08T03:25:39;95652.47;;;2.21;100.00
61408;BME280;47274;43.054;25.146;2024-03-08T03:28:07;95627.88;;;2.08;100.00
61408;BME280;47274;43.054;25.146;2024-03-08T03:30:44;95604.25;;;1.95;100.00
61408;BME280;47274;43.054;25.146;2024-03-08T03:33:09;95598.91;;;1.85;100.00
61408;BME280;47274;43.054;25.146;2024-03-08T03:35:38;95607.66;;;1.94;100.00
61408;BME280;47274;43.054;25.146;2024-03-08T03:38:04;95547.16;;;1.62;100.00
61408;BME280;47274;43.054;25.146;2024-03-08T03:40:37;95544.50;;;1.64;100.00
61408;BME280;47274;43.054;25.146;2024-03-08T03:43:12;95591.50;;;1.97;100.00
61408;BME280;47274;43.054;25.146;2024-03-08T03:45:39;95582.53;;;1.91;100.00
61408;BME280;47274;43.054;25.146;2024-03-08T03:48:10;95588.03;;;1.98;100.00
61408;BME280;47274;43.054;25.146;2024-03-08T03:50:36;95542.66;;;1.68;100.00
61408;BME280;47274;43.054;25.146;2024-03-08T03:53:05;95613.81;;;2.04;100.00
61408;BME280;47274;43.054;25.146;2024-03-08T03:55:56;95657.81;;;2.30;100.00
61408;BME280;47274;43.054;25.146;2024-03-08T03:58:26;95611.72;;;1.97;100.00
61408;BME280;47274;43.054;25.146;2024-03-08T04:00:52;95595.38;;;1.88;100.00
61408;BME280;47274;43.054;25.146;2024-03-08T04:03:19;95623.91;;;2.04;100.00
61408;BME280;47274;43.054;25.146;2024-03-08T04:05:46;95644.16;;;2.19;100.00
61408;BME280;47274;43.054;25.146;2024-03-08T04:08:37;95679.44;;;2.36;100.00
61408;BME280;47274;43.054;25.146;2024-03-08T04:11:03;95604.94;;;1.97;100.00
61408;BME280;47274;43.054;25.146;2024-03-08T04:13:29;95611.09;;;1.93;100.00
61408;BME280;47274;43.054;25.146;2024-03-08T04:15:57;95619.44;;;1.95;100.00
61408;BME280;47274;43.054;25.146;2024-03-08T04:18:29;95620.50;;;1.91;100.00
61408;BME280;47274;43.054;25.146;2024-03-08T04:20:55;95659.00;;;2.10;100.00
61408;BME280;47274;43.054;25.146;2024-03-08T04:23:21;95638.66;;;1.98;100.00
61408;BME280;47274;43.054;25.146;2024-03-08T04:25:47;95590.72;;;1.68;100.00
61408;BME280;47274;43.054;25.146;2024-03-08T04:28:22;95618.06;;;1.89;100.00
61408;BME280;47274;43.054;25.146;2024-03-08T04:30:48;95590.03;;;1.64;100.00
61408;BME280;47274;43.054;25.146;2024-03-08T04:33:16;95611.28;;;1.76;100.00
61408;BME280;47274;43.054;25.146;2024-03-08T04:35:43;95641.47;;;1.93;100.00
61408;BME280;47274;43.054;25.146;2024-03-08T04:38:11;95655.22;;;2.03;100.00
61408;BME280;47274;43.054;25.146;2024-03-08T04:40:40;95645.53;;;1.96;100.00
61408;BME280;47274;43.054;25.146;2024-03-08T04:43:12;95632.00;;;1.82;100.00
61408;BME280;47274;43.054;25.146;2024-03-08T04:45:38;95601.63;;;1.68;100.00
61408;BME280;47274;43.054;25.146;2024-03-08T04:48:10;95629.63;;;1.79;100.00
61408;BME280;47274;43.054;25.146;2024-03-08T04:50:37;95650.84;;;1.77;100.00
61408;BME280;47274;43.054;25.146;2024-03-08T04:56:35;95642.75;;;1.72;100.00
61408;BME280;47274;43.054;25.146;2024-03-08T04:59:05;95683.75;;;1.91;100.00
61408;BME280;47274;43.054;25.146;2024-03-08T05:01:34;95675.72;;;1.84;100.00
61408;BME280;47274;43.054;25.146;2024-03-08T05:04:14;95621.94;;;1.52;100.00
61408;BME280;47274;43.054;25.146;2024-03-08T05:06:43;95701.28;;;2.08;100.00
61408;BME280;47274;43.054;25.146;2024-03-08T05:09:09;95704.03;;;2.05;100.00
61408;BME280;47274;43.054;25.146;2024-03-08T05:11:44;95704.47;;;1.98;100.00
61408;BME280;47274;43.054;25.146;2024-03-08T05:14:16;95706.34;;;1.94;100.00
61408;BME280;47274;43.054;25.146;2024-03-08T05:16:43;95708.63;;;1.99;100.00
61408;BME280;47274;43.054;25.146;2024-03-08T05:19:09;95694.16;;;1.86;100.00
61408;BME280;47274;43.054;25.146;2024-03-08T05:21:35;95706.00;;;1.86;100.00
61408;BME280;47274;43.054;25.146;2024-03-08T05:24:01;95685.56;;;1.75;100.00
61408;BME280;47274;43.054;25.146;2024-03-08T05:26:26;95731.75;;;1.93;100.00
61408;BME280;47274;43.054;25.146;2024-03-08T05:28:52;95708.81;;;1.81;100.00
61408;BME280;47274;43.054;25.146;2024-03-08T05:31:21;95730.97;;;1.92;100.00
61408;BME280;47274;43.054;25.146;2024-03-08T05:33:50;95696.22;;;1.65;100.00
61408;BME280;47274;43.054;25.146;2024-03-08T05:36:19;95650.88;;;1.32;100.00
61408;BME280;47274;43.054;25.146;2024-03-08T05:38:45;95684.63;;;1.47;100.00
61408;BME280;47274;43.054;25.146;2024-03-08T05:41:11;95716.91;;;1.72;100.00
61408;BME280;47274;43.054;25.146;2024-03-08T05:43:43;95725.47;;;1.70;100.00
61408;BME280;47274;43.054;25.146;2024-03-08T05:46:09;95697.53;;;1.57;100.00
61408;BME280;47274;43.054;25.146;2024-03-08T05:48:37;95658.56;;;1.31;100.00
61408;BME280;47274;43.054;25.146;2024-03-08T05:51:06;95775.16;;;2.01;100.00
61408;BME280;47274;43.054;25.146;2024-03-08T05:53:32;95723.47;;;1.60;100.00
61408;BME280;47274;43.054;25.146;2024-03-08T05:55:58;95749.63;;;1.75;100.00
61408;BME280;47274;43.054;25.146;2024-03-08T05:58:36;95714.13;;;1.47;100.00
61408;BME280;47274;43.054;25.146;2024-03-08T06:01:05;95662.84;;;1.14;100.00
61408;BME280;47274;43.054;25.146;2024-03-08T06:03:39;95714.50;;;1.40;100.00
61408;BME280;47274;43.054;25.146;2024-03-08T06:06:16;95743.91;;;1.57;100.00
61408;BME280;47274;43.054;25.146;2024-03-08T06:08:43;95725.53;;;1.54;100.00
61408;BME280;47274;43.054;25.146;2024-03-08T06:11:09;95743.97;;;1.56;100.00
61408;BME280;47274;43.054;25.146;2024-03-08T06:13:35;95747.59;;;1.66;100.00
61408;BME280;47274;43.054;25.146;2024-03-08T06:16:10;95736.56;;;1.53;100.00
61408;BME280;47274;43.054;25.146;2024-03-08T06:18:40;95737.97;;;1.42;100.00
61408;BME280;47274;43.054;25.146;2024-03-08T06:21:07;95798.88;;;1.84;100.00
61408;BME280;47274;43.054;25.146;2024-03-08T06:23:38;95736.06;;;1.46;100.00
61408;BME280;47274;43.054;25.146;2024-03-08T06:26:19;95775.88;;;1.58;100.00
61408;BME280;47274;43.054;25.146;2024-03-08T06:28:48;95798.69;;;1.73;100.00
61408;BME280;47274;43.054;25.146;2024-03-08T06:31:14;95787.00;;;1.70;100.00
61408;BME280;47274;43.054;25.146;2024-03-08T06:33:43;95795.50;;;1.69;100.00
61408;BME280;47274;43.054;25.146;2024-03-08T06:36:09;95773.81;;;1.65;100.00
61408;BME280;47274;43.054;25.146;2024-03-08T06:38:38;95774.16;;;1.59;100.00
61408;BME280;47274;43.054;25.146;2024-03-08T06:41:09;95804.13;;;1.81;100.00
61408;BME280;47274;43.054;25.146;2024-03-08T06:43:34;95787.59;;;1.59;100.00
61408;BME280;47274;43.054;25.146;2024-03-08T06:46:00;95799.91;;;1.65;100.00
61408;BME280;47274;43.054;25.146;2024-03-08T06:48:26;95785.56;;;1.50;100.00
61408;BME280;47274;43.054;25.146;2024-03-08T06:50:52;95793.25;;;1.49;100.00
61408;BME280;47274;43.054;25.146;2024-03-08T06:53:17;95791.03;;;1.58;100.00
61408;BME280;47274;43.054;25.146;2024-03-08T06:55:53;95797.19;;;1.54;100.00
61408;BME280;47274;43.054;25.146;2024-03-08T06:58:20;95782.28;;;1.34;100.00
61408;BME280;47274;43.054;25.146;2024-03-08T07:00:45;95813.88;;;1.57;100.00
61408;BME280;47274;43.054;25.146;2024-03-08T07:03:12;95813.00;;;1.58;100.00
61408;BME280;47274;43.054;25.146;2024-03-08T07:05:42;95731.75;;;1.02;100.00
61408;BME280;47274;43.054;25.146;2024-03-08T07:08:08;95813.97;;;1.55;100.00
61408;BME280;47274;43.054;25.146;2024-03-08T07:10:46;95853.09;;;1.80;100.00
61408;BME280;47274;43.054;25.146;2024-03-08T07:13:17;95826.19;;;1.63;100.00
61408;BME280;47274;43.054;25.146;2024-03-08T07:15:44;95809.91;;;1.53;100.00
61408;BME280;47274;43.054;25.146;2024-03-08T07:18:11;95803.72;;;1.42;100.00
61408;BME280;47274;43.054;25.146;2024-03-08T07:20:41;95784.81;;;1.34;100.00
61408;BME280;47274;43.054;25.146;2024-03-08T07:23:13;95826.34;;;1.60;100.00
61408;BME280;47274;43.054;25.146;2024-03-08T07:26:04;95806.97;;;1.45;100.00
61408;BME280;47274;43.054;25.146;2024-03-08T07:28:32;95780.09;;;1.28;100.00
61408;BME280;47274;43.054;25.146;2024-03-08T07:30:59;95791.91;;;1.27;100.00
61408;BME280;47274;43.054;25.146;2024-03-08T07:33:42;95823.63;;;1.49;100.00
61408;BME280;47274;43.054;25.146;2024-03-08T07:36:08;95812.19;;;1.41;100.00
61408;BME280;47274;43.054;25.146;2024-03-08T07:38:34;95832.59;;;1.54;100.00
61408;BME280;47274;43.054;25.146;2024-03-08T07:41:06;95846.09;;;1.69;100.00
61408;BME280;47274;43.054;25.146;2024-03-08T07:43:32;95843.84;;;1.64;100.00
61408;BME280;47274;43.054;25.146;2024-03-08T07:45:58;95867.84;;;1.87;100.00
61408;BME280;47274;43.054;25.146;2024-03-08T07:48:24;95803.75;;;1.57;100.00
61408;BME280;47274;43.054;25.146;2024-03-08T07:50:50;95870.97;;;1.93;100.00
61408;BME280;47274;43.054;25.146;2024-03-08T07:53:16;95811.28;;;1.42;100.00
61408;BME280;47274;43.054;25.146;2024-03-08T07:55:42;95823.94;;;1.58;100.00
61408;BME280;47274;43.054;25.146;2024-03-08T07:58:15;95833.63;;;1.66;100.00
61408;BME280;47274;43.054;25.146;2024-03-08T08:00:41;95822.94;;;1.61;100.00
61408;BME280;47274;43.054;25.146;2024-03-08T08:03:08;95847.38;;;1.76;100.00
61408;BME280;47274;43.054;25.146;2024-03-08T08:05:37;95854.59;;;1.68;100.00
61408;BME280;47274;43.054;25.146;2024-03-08T08:08:05;95826.88;;;1.51;100.00
61408;BME280;47274;43.054;25.146;2024-03-08T08:10:35;95824.00;;;1.57;100.00
61408;BME280;47274;43.054;25.146;2024-03-08T08:13:01;95836.91;;;1.68;100.00
61408;BME280;47274;43.054;25.146;2024-03-08T08:15:36;95813.81;;;1.42;100.00
61408;BME280;47274;43.054;25.146;2024-03-08T08:18:11;95791.97;;;1.41;100.00
61408;BME280;47274;43.054;25.146;2024-03-08T08:20:39;95872.38;;;1.82;100.00
61408;BME280;47274;43.054;25.146;2024-03-08T08:23:05;95893.56;;;1.96;100.00
61408;BME280;47274;43.054;25.146;2024-03-08T08:25:31;95889.97;;;2.00;100.00
61408;BME280;47274;43.054;25.146;2024-03-08T08:28:06;95803.88;;;1.39;100.00
61408;BME280;47274;43.054;25.146;2024-03-08T08:30:32;95842.19;;;1.63;100.00
61408;BME280;47274;43.054;25.146;2024-03-08T08:33:00;95841.13;;;1.68;100.00
61408;BME280;47274;43.054;25.146;2024-03-08T08:35:26;95865.47;;;1.84;100.00
61408;BME280;47274;43.054;25.146;2024-03-08T08:37:54;95896.09;;;1.96;100.00
61408;BME280;47274;43.054;25.146;2024-03-08T08:40:20;95853.03;;;1.65;100.00
61408;BME280;47274;43.054;25.146;2024-03-08T08:42:48;95857.84;;;1.70;100.00
61408;BME280;47274;43.054;25.146;2024-03-08T08:45:23;95904.97;;;2.03;100.00
61408;BME280;47274;43.054;25.146;2024-03-08T08:47:58;95864.34;;;1.74;100.00
61408;BME280;47274;43.054;25.146;2024-03-08T08:50:28;95872.59;;;1.78;100.00
61408;BME280;47274;43.054;25.146;2024-03-08T08:53:12;95862.09;;;1.70;100.00
61408;BME280;47274;43.054;25.146;2024-03-08T08:55:43;95792.78;;;1.26;100.00
61408;BME280;47274;43.054;25.146;2024-03-08T08:58:08;95803.94;;;1.54;100.00
61408;BME280;47274;43.054;25.146;2024-03-08T09:00:34;95897.88;;;2.09;100.00
61408;BME280;47274;43.054;25.146;2024-03-08T09:03:00;95849.00;;;1.77;100.00
61408;BME280;47274;43.054;25.146;2024-03-08T09:05:37;95818.22;;;1.55;100.00
61408;BME280;47274;43.054;25.146;2024-03-08T09:08:03;95858.00;;;1.83;100.00
61408;BME280;47274;43.054;25.146;2024-03-08T09:10:32;95869.41;;;1.90;100.00
61408;BME280;47274;43.054;25.146;2024-03-08T09:13:05;95854.72;;;1.81;100.00
61408;BME280;47274;43.054;25.146;2024-03-08T09:15:31;95834.34;;;1.68;100.00
61408;BME280;47274;43.054;25.146;2024-03-08T09:18:03;95786.97;;;1.40;100.00
61408;BME280;47274;43.054;25.146;2024-03-08T09:20:31;95885.06;;;1.97;100.00
61408;BME280;47274;43.054;25.146;2024-03-08T09:23:00;95913.94;;;2.08;100.00
61408;BME280;47274;43.054;25.146;2024-03-08T09:25:35;95843.19;;;1.61;100.00
61408;BME280;47274;43.054;25.146;2024-03-08T09:28:01;95846.91;;;1.70;100.00
61408;BME280;47274;43.054;25.146;2024-03-08T09:30:27;95842.59;;;1.72;100.00
61408;BME280;47274;43.054;25.146;2024-03-08T09:32:54;95855.88;;;1.75;100.00
61408;BME280;47274;43.054;25.146;2024-03-08T09:35:20;95851.00;;;1.72;100.00
61408;BME280;47274;43.054;25.146;2024-03-08T09:37:45;95870.75;;;1.81;100.00
61408;BME280;47274;43.054;25.146;2024-03-08T09:40:17;95906.81;;;2.15;100.00
61408;BME280;47274;43.054;25.146;2024-03-08T09:42:48;95877.16;;;1.87;100.00
61408;BME280;47274;43.054;25.146;2024-03-08T09:45:24;95898.63;;;1.96;100.00
61408;BME280;47274;43.054;25.146;2024-03-08T09:47:51;95878.88;;;1.71;100.00
61408;BME280;47274;43.054;25.146;2024-03-08T09:50:17;95923.59;;;2.02;100.00
61408;BME280;47274;43.054;25.146;2024-03-08T09:52:48;95871.72;;;1.63;100.00
61408;BME280;47274;43.054;25.146;2024-03-08T09:55:17;95868.72;;;1.56;100.00
61408;BME280;47274;43.054;25.146;2024-03-08T09:57:48;95881.44;;;1.55;100.00
61408;BME280;47274;43.054;25.146;2024-03-08T10:00:35;95898.09;;;1.59;100.00
61408;BME280;47274;43.054;25.146;2024-03-08T10:03:01;95926.56;;;1.78;100.00
61408;BME280;47274;43.054;25.146;2024-03-08T10:05:28;95890.59;;;1.57;100.00
61408;BME280;47274;43.054;25.146;2024-03-08T10:07:53;95867.84;;;1.41;100.00
61408;BME280;47274;43.054;25.146;2024-03-08T10:10:22;95870.03;;;1.48;100.00
61408;BME280;47274;43.054;25.146;2024-03-08T10:12:48;95906.81;;;1.69;100.00
61408;BME280;47274;43.054;25.146;2024-03-08T10:15:20;95899.66;;;1.61;100.00
61408;BME280;47274;43.054;25.146;2024-03-08T10:17:46;95931.75;;;1.91;100.00
61408;BME280;47274;43.054;25.146;2024-03-08T10:20:16;95911.88;;;1.85;100.00
61408;BME280;47274;43.054;25.146;2024-03-08T10:22:51;95887.31;;;1.71;100.00
61408;BME280;47274;43.054;25.146;2024-03-08T10:25:31;95933.47;;;1.90;100.00
61408;BME280;47274;43.054;25.146;2024-03-08T10:27:57;95909.75;;;1.77;100.00
61408;BME280;47274;43.054;25.146;2024-03-08T10:30:23;95824.13;;;1.24;100.00
61408;BME280;47274;43.054;25.146;2024-03-08T10:32:49;95869.03;;;1.50;100.00
61408;BME280;47274;43.054;25.146;2024-03-08T10:35:15;95892.94;;;1.60;100.00
61408;BME280;47274;43.054;25.146;2024-03-08T10:37:50;95888.72;;;1.61;100.00
61408;BME280;47274;43.054;25.146;2024-03-08T10:40:28;95890.72;;;1.70;100.00
61408;BME280;47274;43.054;25.146;2024-03-08T10:42:57;95927.34;;;1.95;100.00
61408;BME280;47274;43.054;25.146;2024-03-08T10:45:39;95924.81;;;1.95;100.00
61408;BME280;47274;43.054;25.146;2024-03-08T10:50:48;95889.66;;;1.74;100.00
61408;BME280;47274;43.054;25.146;2024-03-08T10:53:18;95891.47;;;1.72;100.00
61408;BME280;47274;43.054;25.146;2024-03-08T10:55:50;95864.88;;;1.49;100.00
61408;BME280;47274;43.054;25.146;2024-03-08T10:58:23;95875.16;;;1.62;100.00
61408;BME280;47274;43.054;25.146;2024-03-08T11:01:01;95865.75;;;1.64;100.00
61408;BME280;47274;43.054;25.146;2024-03-08T11:12:37;95899.56;;;1.79;100.00
61408;BME280;47274;43.054;25.146;2024-03-08T11:15:12;95915.13;;;1.87;100.00
61408;BME280;47274;43.054;25.146;2024-03-08T11:17:47;95885.66;;;1.70;100.00
61408;BME280;47274;43.054;25.146;2024-03-08T11:20:19;95869.03;;;1.50;100.00
61408;BME280;47274;43.054;25.146;2024-03-08T11:22:49;95909.09;;;1.74;100.00
61408;BME280;47274;43.054;25.146;2024-03-08T11:25:36;95915.06;;;1.73;100.00
61408;BME280;47274;43.054;25.146;2024-03-08T11:28:23;95899.81;;;1.58;100.00
61408;BME280;47274;43.054;25.146;2024-03-08T11:33:27;95875.97;;;1.62;100.00
61408;BME280;47274;43.054;25.146;2024-03-08T11:36:08;95884.84;;;1.70;100.00
61408;BME280;47274;43.054;25.146;2024-03-08T11:38:44;95913.00;;;1.79;100.00
61408;BME280;47274;43.054;25.146;2024-03-08T11:41:10;95849.53;;;1.36;100.00
61408;BME280;47274;43.054;25.146;2024-03-08T11:43:43;95877.38;;;1.52;100.00
61408;BME280;47274;43.054;25.146;2024-03-08T11:46:10;95862.44;;;1.48;100.00
61408;BME280;47274;43.054;25.146;2024-03-08T11:48:39;95829.03;;;1.27;100.00
61408;BME280;47274;43.054;25.146;2024-03-08T11:51:08;95906.50;;;1.75;100.00
61408;BME280;47274;43.054;25.146;2024-03-08T11:53:41;95898.75;;;1.78;100.00
61408;BME280;47274;43.054;25.146;2024-03-08T11:58:36;95853.06;;;1.50;100.00
61408;BME280;47274;43.054;25.146;2024-03-08T12:01:10;95862.41;;;1.63;100.00
61408;BME280;47274;43.054;25.146;2024-03-08T12:03:42;95899.22;;;1.85;100.00
61408;BME280;47274;43.054;25.146;2024-03-08T12:06:14;95846.84;;;1.55;100.00
61408;BME280;47274;43.054;25.146;2024-03-08T12:08:43;95787.75;;;1.10;100.00
61408;BME280;47274;43.054;25.146;2024-03-08T12:11:09;95855.34;;;1.54;100.00
61408;BME280;47274;43.054;25.146;2024-03-08T12:13:35;95863.50;;;1.59;100.00
61408;BME280;47274;43.054;25.146;2024-03-08T12:16:04;95855.50;;;1.51;100.00
61408;BME280;47274;43.054;25.146;2024-03-08T12:18:38;95906.97;;;1.82;100.00
61408;BME280;47274;43.054;25.146;2024-03-08T12:21:06;95895.13;;;1.82;100.00
61408;BME280;47274;43.054;25.146;2024-03-08T12:23:41;95869.47;;;1.58;100.00
61408;BME280;47274;43.054;25.146;2024-03-08T12:26:25;95856.97;;;1.55;100.00
61408;BME280;47274;43.054;25.146;2024-03-08T12:32:07;95862.28;;;1.51;100.00
61408;BME280;47274;43.054;25.146;2024-03-08T12:34:34;95820.53;;;1.28;100.00
61408;BME280;47274;43.054;25.146;2024-03-08T12:37:00;95884.38;;;1.63;100.00
61408;BME280;47274;43.054;25.146;2024-03-08T12:39:26;95813.84;;;1.27;100.00
61408;BME280;47274;43.054;25.146;2024-03-08T12:41:55;95838.88;;;1.47;100.00
61408;BME280;47274;43.054;25.146;2024-03-08T12:44:22;95863.06;;;1.67;100.00
61408;BME280;47274;43.054;25.146;2024-03-08T12:46:50;95844.06;;;1.60;100.00
61408;BME280;47274;43.054;25.146;2024-03-08T12:49:17;95823.94;;;1.58;100.00
61408;BME280;47274;43.054;25.146;2024-03-08T12:51:46;95846.41;;;1.79;100.00
61408;BME280;47274;43.054;25.146;2024-03-08T12:54:18;95830.31;;;1.80;100.00
61408;BME280;47274;43.054;25.146;2024-03-08T12:56:48;95869.34;;;1.92;100.00
61408;BME280;47274;43.054;25.146;2024-03-08T12:59:15;95866.13;;;1.88;100.00
61408;BME280;47274;43.054;25.146;2024-03-08T13:01:47;95801.13;;;1.28;100.00
61408;BME280;47274;43.054;25.146;2024-03-08T13:04:13;95899.78;;;1.90;100.00
61408;BME280;47274;43.054;25.146;2024-03-08T13:06:43;95865.69;;;1.65;100.00
61408;BME280;47274;43.054;25.146;2024-03-08T13:09:10;95872.69;;;1.60;100.00
61408;BME280;47274;43.054;25.146;2024-03-08T13:11:39;95830.72;;;1.26;100.00
61408;BME280;47274;43.054;25.146;2024-03-08T13:14:07;95823.97;;;1.27;100.00
61408;BME280;47274;43.054;25.146;2024-03-08T13:16:33;95815.72;;;1.23;100.00
61408;BME280;47274;43.054;25.146;2024-03-08T13:19:00;95842.97;;;1.34;100.00
61408;BME280;47274;43.054;25.146;2024-03-08T13:21:29;95857.88;;;1.38;100.00
61408;BME280;47274;43.054;25.146;2024-03-08T13:23:55;95886.94;;;1.47;100.00
61408;BME280;47274;43.054;25.146;2024-03-08T13:26:21;95852.34;;;1.32;100.00
61408;BME280;47274;43.054;25.146;2024-03-08T13:28:54;95846.31;;;1.34;100.00
61408;BME280;47274;43.054;25.146;2024-03-08T13:31:21;95893.59;;;1.64;100.00